Time;durP1;ratioP1;P1;durP2;ratioP2;P2;SDS_P1;SDS_P2;PMS_P1;PMS_P2;Temp;Humidity;BMP_temperature;BMP_pressure;BME280_temperature;BME280_humidity;BME280_pressure;Samples;Min_cycle;Max_cycle;Signal;HPM_P1;HPM_P2
2023/02/22 00:01:01;;;;;;;8.20;5.40;;;;;;;17.57;30.30;99134.75;108108;1259;72745;-64
2023/02/22 00:03:33;;;;;;;7.20;5.10;;;;;;;17.26;30.32;99139.36;108066;1254;61196;-66
2023/02/22 00:06:03;;;;;;;9.20;5.30;;;;;;;17.59;29.90;99144.20;108178;1254;60194;-66
2023/02/22 00:08:35;;;;;;;8.60;5.30;;;;;;;17.60;29.55;99146.55;108165;1255;73194;-66
2023/02/22 00:11:07;;;;;;;9.00;5.90;;;;;;;17.78;29.16;99147.91;108129;1254;70925;-67
2023/02/22 00:13:36;;;;;;;8.50;5.40;;;;;;;18.21;28.76;99152.88;108083;1254;73104;-62
2023/02/22 00:16:05;;;;;;;8.50;5.20;;;;;;;18.69;28.18;99152.73;108098;1254;62272;-64
2023/02/22 00:18:33;;;;;;;8.30;4.70;;;;;;;18.40;28.23;99154.53;108093;1254;61049;-65
2023/02/22 00:21:09;;;;;;;9.10;5.40;;;;;;;18.28;28.25;99158.72;108081;1254;73928;-65
2023/02/22 00:23:42;;;;;;;8.90;4.80;;;;;;;18.15;28.44;99163.70;108053;1259;68497;-65
2023/02/22 00:26:12;;;;;;;10.00;5.40;;;;;;;18.18;28.35;99166.16;108042;1254;73666;-65
2023/02/22 00:28:41;;;;;;;7.30;4.90;;;;;;;18.39;28.03;99171.51;108011;1256;61643;-65
2023/02/22 00:31:09;;;;;;;8.90;4.70;;;;;;;18.35;27.90;99178.60;108072;1256;61098;-63
2023/02/22 00:33:38;;;;;;;9.10;5.60;;;;;;;18.59;27.83;99183.30;107950;1256;74470;-63
2023/02/22 00:36:08;;;;;;;8.20;5.20;;;;;;;18.41;27.87;99187.84;108023;1255;70514;-64
2023/02/22 00:38:37;;;;;;;8.00;5.10;;;;;;;18.32;27.70;99194.81;108048;1255;73434;-64
2023/02/22 00:41:06;;;;;;;8.00;4.80;;;;;;;18.35;27.55;99200.99;107960;1256;62058;-65
2023/02/22 00:43:34;;;;;;;8.50;4.90;;;;;;;18.04;27.77;99207.64;108049;1256;61564;-65
2023/02/22 00:46:03;;;;;;;8.40;5.30;;;;;;;18.25;27.68;99208.15;107981;1256;74073;-65
2023/02/22 00:48:31;;;;;;;7.30;5.30;;;;;;;17.81;28.11;99211.65;107844;1256;70410;-65
2023/02/22 00:51:00;;;;;;;7.40;4.20;;;;;;;17.81;27.79;99214.48;107973;1256;73908;-65
2023/02/22 00:53:29;;;;;;;7.30;4.80;;;;;;;17.61;27.98;99220.00;107951;1255;62144;-66
2023/02/22 00:55:58;;;;;;;8.60;5.20;;;;;;;17.45;28.04;99228.14;107843;1256;61570;-66
2023/02/22 00:58:27;;;;;;;8.30;4.90;;;;;;;17.23;28.40;99233.27;108010;1255;73646;-65
2023/02/22 01:00:58;;;;;;;7.50;4.70;;;;;;;17.42;28.29;99241.90;107984;1256;71373;-67
2023/02/22 01:03:26;;;;;;;7.00;4.60;;;;;;;17.65;27.81;99242.21;108040;1259;73960;-65
2023/02/22 01:06:01;;;;;;;8.60;5.10;;;;;;;17.46;28.00;99249.77;107988;1256;61477;-65
2023/02/22 01:08:33;;;;;;;8.00;4.60;;;;;;;17.28;28.16;99255.79;108133;1253;61509;-64
2023/02/22 01:11:01;;;;;;;7.70;5.00;;;;;;;17.28;28.13;99267.15;108154;1253;74267;-66
2023/02/22 01:13:30;;;;;;;7.90;4.50;;;;;;;17.18;28.34;99270.89;108152;1253;70579;-64
2023/02/22 01:16:00;;;;;;;7.00;4.40;;;;;;;17.29;28.17;99277.01;108088;1253;73394;-65
2023/02/22 01:18:30;;;;;;;9.70;6.00;;;;;;;17.75;27.47;99273.36;108061;1253;61375;-65
2023/02/22 01:20:59;;;;;;;8.80;5.30;;;;;;;17.51;27.65;99281.27;108125;1253;61536;-65
2023/02/22 01:23:28;;;;;;;7.30;4.90;;;;;;;17.44;27.76;99286.09;108065;1252;73952;-65
2023/02/22 01:25:57;;;;;;;9.10;5.40;;;;;;;17.56;27.69;99284.42;108075;1253;71252;-66
2023/02/22 01:28:25;;;;;;;7.90;4.60;;;;;;;17.36;27.56;99292.02;108148;1253;72993;-65
2023/02/22 01:30:54;;;;;;;9.80;5.50;;;;;;;17.59;26.79;99291.80;108137;1253;62424;-65
2023/02/22 01:33:24;;;;;;;12.40;5.70;;;;;;;17.84;26.55;99298.00;108216;1253;61097;-66
2023/02/22 01:35:55;;;;;;;12.30;5.80;;;;;;;17.83;26.38;99298.48;108285;1253;72913;-65
2023/02/22 01:38:23;;;;;;;11.10;6.30;;;;;;;17.71;26.37;99303.98;108066;1253;71193;-65
2023/02/22 01:40:51;;;;;;;12.20;6.00;;;;;;;17.85;26.28;99314.80;108245;1253;73835;-64
2023/02/22 01:43:24;;;;;;;9.80;5.60;;;;;;;17.82;26.21;99318.27;108216;1253;62687;-65
2023/02/22 01:45:54;;;;;;;10.00;5.90;;;;;;;17.87;26.20;99326.19;108064;1254;60350;-66
2023/02/22 01:48:34;;;;;;;12.30;6.20;;;;;;;18.01;25.94;99327.58;108071;1258;74255;-67
2023/02/22 01:51:09;;;;;;;10.40;6.00;;;;;;;18.08;25.75;99336.73;108220;1253;71301;-63
2023/02/22 01:53:52;;;;;;;11.40;6.10;;;;;;;17.85;25.84;99335.58;108206;1252;72816;-62
2023/02/22 01:56:21;;;;;;;10.10;6.10;;;;;;;17.53;25.82;99340.42;108051;1253;62115;-66
2023/02/22 01:58:54;;;;;;;12.50;6.30;;;;;;;17.42;25.90;99341.94;108127;1253;60204;-64
2023/02/22 02:01:23;;;;;;;12.30;6.50;;;;;;;17.66;25.69;99343.77;108093;1253;73087;-65
2023/02/22 02:03:56;;;;;;;11.60;6.00;;;;;;;17.34;25.67;99352.56;108137;1253;71773;-66
2023/02/22 02:06:27;;;;;;;10.20;5.90;;;;;;;17.54;25.57;99357.19;108079;1253;71488;-65
2023/02/22 02:09:15;;;;;;;9.60;5.50;;;;;;;17.47;25.66;99358.81;108026;1253;63222;-65
2023/02/22 02:11:44;;;;;;;10.60;6.50;;;;;;;17.39;25.47;99365.98;108194;1253;60416;-63
2023/02/22 02:14:16;;;;;;;10.50;5.50;;;;;;;17.27;25.48;99369.21;108147;1257;73143;-65
2023/02/22 02:16:49;;;;;;;13.00;6.40;;;;;;;17.61;25.48;99375.10;108093;1253;71393;-65
2023/02/22 02:20:06;;;;;;;10.50;6.40;;;;;;;17.59;25.48;99381.96;108054;1253;72964;-66
2023/02/22 02:22:47;;;;;;;10.60;5.70;;;;;;;17.51;25.64;99384.59;108063;1252;62267;-64
2023/02/22 02:25:30;;;;;;;11.40;5.90;;;;;;;17.24;25.89;99389.86;108272;1252;61523;-63
2023/02/22 02:28:04;;;;;;;9.80;5.30;;;;;;;17.16;26.02;99395.05;108298;1253;73571;-65
2023/02/22 02:31:11;;;;;;;12.30;6.40;;;;;;;17.41;25.78;99399.48;108284;1252;70234;-65
2023/02/22 02:33:41;;;;;;;9.40;5.60;;;;;;;17.30;25.91;99405.02;107676;1252;74043;-65
2023/02/22 02:36:30;;;;;;;11.20;6.20;;;;;;;17.61;25.65;99407.27;108084;1253;62072;-65
2023/02/22 02:39:19;;;;;;;11.10;6.00;;;;;;;17.69;25.59;99411.58;108115;1253;61021;-66
2023/02/22 02:41:49;;;;;;;10.80;6.10;;;;;;;17.69;25.44;99416.90;108166;1252;72484;-65
2023/02/22 02:44:25;;;;;;;11.50;6.20;;;;;;;17.82;25.18;99425.70;108376;1253;70513;-64
2023/02/22 02:47:00;;;;;;;12.80;5.70;;;;;;;17.64;24.89;99422.61;108263;1252;73455;-65
2023/02/22 02:49:55;;;;;;;10.80;6.50;;;;;;;17.55;24.55;99424.52;108241;1252;61850;-65
2023/02/22 02:52:23;;;;;;;10.70;5.60;;;;;;;17.46;24.47;99428.08;108232;1252;61112;-66
2023/02/22 02:54:52;;;;;;;11.40;6.50;;;;;;;17.37;24.56;99435.16;108018;1253;73153;-64
2023/02/22 02:57:20;;;;;;;11.00;6.80;;;;;;;17.20;24.73;99446.55;107904;1253;71445;-65
2023/02/22 02:59:49;;;;;;;9.90;6.20;;;;;;;17.26;24.61;99452.50;108312;1253;72675;-66
2023/02/22 03:02:35;;;;;;;13.10;6.70;;;;;;;17.52;24.56;99457.98;108308;1253;60625;-64
2023/02/22 03:05:41;;;;;;;11.60;6.70;;;;;;;17.38;24.45;99461.87;108247;1253;62520;-65
2023/02/22 03:08:29;;;;;;;13.30;6.10;;;;;;;17.41;24.42;99470.34;108302;1253;73125;-64
2023/02/22 03:11:05;;;;;;;15.50;7.00;;;;;;;17.37;24.48;99478.09;108286;1253;70636;-65
2023/02/22 03:14:17;;;;;;;14.40;7.50;;;;;;;17.55;24.42;99476.76;108022;1254;73706;-64
2023/02/22 03:16:59;;;;;;;15.70;8.00;;;;;;;17.40;24.59;99484.73;108081;1253;62277;-65
2023/02/22 03:19:47;;;;;;;13.10;6.70;;;;;;;16.90;24.96;99490.09;108137;1253;61217;-65
2023/02/22 03:22:23;;;;;;;13.20;7.30;;;;;;;17.34;24.81;99493.56;108266;1253;74044;-65
2023/02/22 03:25:01;;;;;;;13.70;7.30;;;;;;;17.25;24.73;99496.76;108321;1253;68991;-66
2023/02/22 03:27:42;;;;;;;12.40;6.40;;;;;;;17.24;24.64;99501.98;108090;1256;72827;-65
2023/02/22 03:30:24;;;;;;;14.70;7.20;;;;;;;17.27;24.89;99502.96;108131;1253;61202;-65
2023/02/22 03:32:59;;;;;;;12.90;6.60;;;;;;;17.34;24.85;99509.91;108040;1252;60369;-65
2023/02/22 03:35:30;;;;;;;13.20;7.30;;;;;;;17.23;24.92;99512.70;108069;1252;74845;-66
2023/02/22 03:38:00;;;;;;;14.50;6.80;;;;;;;17.26;25.04;99521.11;108164;1253;71555;-66
2023/02/22 03:40:35;;;;;;;11.70;6.80;;;;;;;17.54;24.69;99517.45;108086;1258;72880;-64
2023/02/22 03:43:14;;;;;;;12.80;6.40;;;;;;;17.55;24.57;99524.68;107963;1253;61015;-65
2023/02/22 03:45:44;;;;;;;9.80;5.30;;;;;;;17.58;24.58;99530.66;108084;1252;60293;-67
2023/02/22 03:48:48;;;;;;;11.10;6.80;;;;;;;17.47;24.77;99536.23;108228;1256;74760;-66
2023/02/22 03:51:16;;;;;;;12.50;7.20;;;;;;;17.83;24.29;99545.09;107973;1256;68586;-65
2023/02/22 03:53:47;;;;;;;12.00;6.90;;;;;;;17.41;24.22;99549.48;108085;1254;73700;-65
2023/02/22 03:56:22;;;;;;;11.90;6.80;;;;;;;17.31;24.02;99551.43;108076;1252;62316;-64
2023/02/22 03:58:51;;;;;;;11.40;6.40;;;;;;;17.26;24.11;99556.83;108273;1252;60485;-65
2023/02/22 04:01:22;;;;;;;13.30;7.20;;;;;;;16.85;24.30;99561.89;107899;1253;74714;-65
2023/02/22 04:03:51;;;;;;;11.40;6.10;;;;;;;16.53;24.79;99562.17;108098;1253;70079;-64
2023/02/22 04:06:21;;;;;;;12.50;6.60;;;;;;;16.73;24.75;99570.86;108256;1252;72154;-65
2023/02/22 04:08:53;;;;;;;13.10;6.90;;;;;;;16.80;24.70;99575.05;108028;1252;62461;-64
2023/02/22 04:11:22;;;;;;;11.20;6.40;;;;;;;16.60;24.67;99579.80;108251;1253;61613;-66
2023/02/22 04:13:50;;;;;;;13.50;7.50;;;;;;;16.68;24.70;99585.59;108078;1253;75075;-65
2023/02/22 04:16:19;;;;;;;12.40;6.70;;;;;;;16.24;25.11;99587.98;108267;1253;69813;-65
2023/02/22 04:18:47;;;;;;;14.20;7.00;;;;;;;16.29;25.23;99588.54;108083;1252;73509;-66
2023/02/22 04:21:18;;;;;;;12.80;6.80;;;;;;;16.51;25.16;99594.40;108114;1259;62036;-67
2023/02/22 04:23:50;;;;;;;13.90;6.70;;;;;;;16.14;25.20;99596.07;108072;1252;61786;-66
2023/02/22 04:26:19;;;;;;;12.80;6.60;;;;;;;16.05;25.38;99596.48;108279;1253;74878;-65
2023/02/22 04:28:52;;;;;;;13.80;7.50;;;;;;;16.33;25.23;99602.76;108154;1253;70816;-64
2023/02/22 04:31:23;;;;;;;13.00;7.40;;;;;;;16.38;25.33;99610.54;108114;1257;71899;-65
2023/02/22 04:33:54;;;;;;;10.20;6.30;;;;;;;16.59;25.04;99614.06;108035;1253;61909;-66
2023/02/22 04:36:32;;;;;;;13.30;6.90;;;;;;;16.77;24.56;99626.25;108104;1253;61545;-64
2023/02/22 04:39:00;;;;;;;12.00;6.50;;;;;;;16.83;24.52;99627.98;108086;1253;73320;-65
2023/02/22 04:41:33;;;;;;;16.20;7.40;;;;;;;16.86;24.73;99627.80;108092;1253;71349;-65
2023/02/22 04:44:02;;;;;;;12.00;6.80;;;;;;;16.78;24.60;99628.89;107984;1253;73857;-65
2023/02/22 04:46:31;;;;;;;12.90;7.10;;;;;;;16.49;24.94;99634.59;108115;1253;61205;-65
2023/02/22 04:49:00;;;;;;;13.30;7.80;;;;;;;16.29;24.73;99634.52;108049;1253;61300;-66
2023/02/22 04:51:31;;;;;;;13.40;6.70;;;;;;;16.31;24.57;99639.88;108126;1253;73181;-66
2023/02/22 04:54:05;;;;;;;12.00;6.70;;;;;;;16.34;24.50;99638.83;108216;1253;71390;-65
2023/02/22 04:56:37;;;;;;;12.80;7.20;;;;;;;16.21;24.78;99643.05;108471;1253;72675;-65
2023/02/22 04:59:12;;;;;;;15.60;8.00;;;;;;;16.25;24.83;99650.95;108200;1253;60867;-64
2023/02/22 05:01:43;;;;;;;12.70;6.50;;;;;;;16.37;24.62;99655.79;108118;1253;60482;-65
2023/02/22 05:04:14;;;;;;;13.70;6.70;;;;;;;16.74;24.09;99662.98;108157;1253;74033;-67
2023/02/22 05:06:42;;;;;;;11.40;6.90;;;;;;;17.04;23.73;99667.16;108052;1255;71171;-68
2023/02/22 05:09:10;;;;;;;12.30;7.00;;;;;;;17.22;23.61;99674.38;108028;1253;72393;-67
2023/02/22 05:11:39;;;;;;;11.80;6.90;;;;;;;17.29;23.18;99681.08;108106;1253;63210;-65
2023/02/22 05:14:07;;;;;;;14.10;7.00;;;;;;;17.11;23.28;99690.40;108118;1253;60488;-67
2023/02/22 05:16:35;;;;;;;15.40;6.80;;;;;;;17.06;23.34;99692.88;108031;1253;74613;-66
2023/02/22 05:19:04;;;;;;;13.30;7.40;;;;;;;17.05;23.06;99697.17;108021;1253;70441;-65
2023/02/22 05:21:32;;;;;;;13.40;7.20;;;;;;;16.77;23.22;99707.47;108140;1253;73919;-66
2023/02/22 05:24:00;;;;;;;12.20;6.20;;;;;;;16.40;23.49;99711.05;108162;1253;63272;-66
2023/02/22 05:26:29;;;;;;;14.20;7.20;;;;;;;16.80;23.49;99713.66;108172;1253;60429;-65
2023/02/22 05:28:58;;;;;;;15.90;7.20;;;;;;;17.03;23.03;99721.47;108069;1253;73856;-66
2023/02/22 05:31:26;;;;;;;16.40;7.50;;;;;;;16.91;23.24;99724.77;108145;1253;71301;-66
2023/02/22 05:33:57;;;;;;;13.40;7.70;;;;;;;16.88;23.33;99720.74;108125;1253;73919;-66
2023/02/22 05:36:26;;;;;;;12.50;6.10;;;;;;;16.98;23.09;99725.52;108128;1253;61231;-65
2023/02/22 05:38:55;;;;;;;15.60;7.50;;;;;;;16.97;23.31;99731.64;108111;1253;61536;-66
2023/02/22 05:41:24;;;;;;;15.50;6.90;;;;;;;17.08;23.24;99738.37;108103;1253;73070;-64
2023/02/22 05:43:52;;;;;;;12.90;6.90;;;;;;;16.94;23.06;99744.80;108086;1253;71539;-66
2023/02/22 05:46:20;;;;;;;13.70;7.30;;;;;;;17.01;22.88;99752.09;108144;1253;73601;-67
2023/02/22 05:48:49;;;;;;;15.30;7.70;;;;;;;16.93;22.76;99756.21;108100;1257;60288;-66
2023/02/22 05:51:18;;;;;;;15.40;6.90;;;;;;;16.58;22.59;99763.72;108047;1258;60433;-66
2023/02/22 05:53:47;;;;;;;13.80;7.40;;;;;;;16.68;22.88;99773.16;108160;1253;74029;-67
2023/02/22 05:56:41;;;;;;;16.20;7.20;;;;;;;16.61;23.09;99779.25;108115;1253;71483;-65
2023/02/22 05:59:10;;;;;;;13.00;6.90;;;;;;;16.78;23.03;99778.69;108108;1253;73606;-66
2023/02/22 06:01:39;;;;;;;13.70;7.30;;;;;;;16.75;23.33;99786.33;107998;1253;62292;-67
2023/02/22 06:04:08;;;;;;;15.00;7.80;;;;;;;16.72;23.26;99791.45;108093;1253;61668;-67
2023/02/22 06:06:36;;;;;;;13.70;7.60;;;;;;;16.67;23.41;99790.58;108075;1257;74579;-66
2023/02/22 06:09:05;;;;;;;30.60;15.80;;;;;;;16.54;23.58;99797.30;108080;1253;71391;-64
2023/02/22 06:11:33;;;;;;;132.00;50.90;;;;;;;16.82;23.36;99801.63;107973;1253;73826;-67
2023/02/22 06:14:07;;;;;;;68.40;26.30;;;;;;;16.88;23.57;99806.35;108056;1253;61687;-66
2023/02/22 06:16:35;;;;;;;42.70;18.40;;;;;;;17.22;23.54;99811.28;108046;1253;61548;-66
2023/02/22 06:19:03;;;;;;;29.50;12.40;;;;;;;17.36;23.14;99816.88;108094;1253;72504;-66
2023/02/22 06:21:32;;;;;;;16.90;8.50;;;;;;;17.30;23.46;99819.79;108162;1253;71030;-66
2023/02/22 06:24:04;;;;;;;16.20;7.90;;;;;;;17.34;23.22;99820.92;108085;1253;73888;-66
2023/02/22 06:26:33;;;;;;;17.30;8.30;;;;;;;16.46;23.91;99825.84;108163;1253;61185;-68
2023/02/22 06:29:01;;;;;;;13.00;7.60;;;;;;;16.40;24.18;99831.89;108234;1252;61548;-65
2023/02/22 06:31:30;;;;;;;15.10;8.50;;;;;;;16.87;23.87;99830.02;108221;1253;73542;-67
2023/02/22 06:33:58;;;;;;;16.50;8.20;;;;;;;17.32;23.52;99827.63;108284;1256;68806;-67
2023/02/22 06:36:27;;;;;;;14.30;8.20;;;;;;;17.49;23.47;99828.56;108361;1252;73311;-66
2023/02/22 06:38:56;;;;;;;21.60;9.10;;;;;;;17.82;22.98;99832.59;108301;1252;60924;-66
2023/02/22 06:41:24;;;;;;;28.70;10.50;;;;;;;17.19;23.41;99837.38;108332;1252;59698;-66
2023/02/22 06:43:52;;;;;;;16.60;8.50;;;;;;;17.13;23.77;99841.52;108292;1253;75079;-67
2023/02/22 06:46:22;;;;;;;25.00;11.40;;;;;;;17.31;23.20;99842.25;108232;1253;69762;-65
2023/02/22 06:48:51;;;;;;;15.30;8.90;;;;;;;16.91;24.06;99845.70;108212;1252;73719;-66
2023/02/22 06:51:19;;;;;;;13.00;8.00;;;;;;;17.40;23.45;99843.20;108206;1256;60807;-66
2023/02/22 06:53:47;;;;;;;16.10;8.30;;;;;;;17.72;22.93;99842.77;108029;1253;61372;-65
2023/02/22 06:56:16;;;;;;;15.10;8.10;;;;;;;18.33;22.86;99844.39;108308;1254;74086;-67
2023/02/22 06:58:48;;;;;;;14.30;7.90;;;;;;;18.45;22.02;99846.54;108282;1253;71323;-66
2023/02/22 07:01:16;;;;;;;14.50;8.30;;;;;;;18.58;21.90;99853.59;108299;1252;73468;-66
2023/02/22 07:03:47;;;;;;;15.50;7.90;;;;;;;17.99;22.42;99854.55;108333;1253;60611;-66
2023/02/22 07:06:15;;;;;;;14.80;7.70;;;;;;;18.16;21.98;99854.36;108127;1252;61470;-67
2023/02/22 07:08:45;;;;;;;12.60;6.90;;;;;;;18.20;22.57;99861.00;108197;1257;73463;-68
2023/02/22 07:11:13;;;;;;;14.00;7.50;;;;;;;18.19;22.04;99861.80;108291;1253;71345;-66
2023/02/22 07:13:42;;;;;;;15.10;7.60;;;;;;;18.34;21.88;99869.73;108380;1253;73886;-68
2023/02/22 07:16:11;;;;;;;14.90;8.00;;;;;;;18.87;21.58;99871.47;108259;1253;60525;-68
2023/02/22 07:18:39;;;;;;;13.60;7.80;;;;;;;18.55;21.83;99878.52;108249;1253;61543;-69
2023/02/22 07:21:07;;;;;;;14.30;7.80;;;;;;;18.22;21.91;99880.17;108288;1256;74836;-68
2023/02/22 07:23:35;;;;;;;12.30;7.00;;;;;;;18.09;21.86;99881.52;108122;1252;70189;-67
2023/02/22 07:26:04;;;;;;;14.00;8.10;;;;;;;18.23;22.12;99878.75;108275;1252;72577;-67
2023/02/22 07:28:32;;;;;;;14.50;7.80;;;;;;;18.29;21.89;99881.27;108132;1253;60797;-67
2023/02/22 07:31:00;;;;;;;14.40;7.60;;;;;;;18.61;21.92;99882.13;108143;1253;60314;-65
2023/02/22 07:33:29;;;;;;;15.40;8.10;;;;;;;19.00;21.75;99884.75;108038;1253;74153;-67
2023/02/22 07:35:57;;;;;;;16.60;8.70;;;;;;;19.14;21.35;99887.42;108188;1252;71473;-67
2023/02/22 07:38:25;;;;;;;13.70;8.10;;;;;;;19.50;21.11;99890.16;108307;1252;73146;-66
2023/02/22 07:40:56;;;;;;;15.30;8.20;;;;;;;19.32;21.53;99898.34;108502;1252;60412;-68
2023/02/22 07:43:26;;;;;;;14.50;8.00;;;;;;;19.48;21.37;99900.66;108312;1252;60324;-67
2023/02/22 07:45:55;;;;;;;16.20;8.40;;;;;;;19.24;20.91;99906.77;108308;1253;73846;-67
2023/02/22 07:48:25;;;;;;;12.70;7.40;;;;;;;19.11;20.91;99911.16;108162;1253;69764;-69
2023/02/22 07:50:53;;;;;;;14.10;7.70;;;;;;;18.47;21.38;99912.14;108374;1256;73986;-67
2023/02/22 07:53:23;;;;;;;12.10;7.10;;;;;;;18.35;21.52;99912.36;108243;1253;60813;-66
2023/02/22 07:55:51;;;;;;;13.30;7.90;;;;;;;18.99;21.03;99909.92;108311;1252;61443;-67
2023/02/22 07:58:21;;;;;;;12.60;7.60;;;;;;;19.71;20.69;99909.77;108230;1253;74748;-67
2023/02/22 08:00:53;;;;;;;13.10;7.70;;;;;;;18.63;21.34;99914.90;108293;1253;70470;-67
2023/02/22 08:03:23;;;;;;;12.20;7.10;;;;;;;18.71;21.43;99911.14;108272;1253;72718;-65
2023/02/22 08:05:53;;;;;;;13.90;7.80;;;;;;;18.48;21.49;99917.27;108272;1252;60237;-67
2023/02/22 08:08:25;;;;;;;14.60;7.80;;;;;;;18.36;21.78;99920.21;108304;1252;60351;-64
2023/02/22 08:10:54;;;;;;;14.20;8.00;;;;;;;18.74;21.88;99920.14;108358;1253;71859;-66
2023/02/22 08:13:22;;;;;;;14.70;8.20;;;;;;;20.14;21.69;99920.05;108213;1253;70446;-67
2023/02/22 08:15:53;;;;;;;11.80;7.50;;;;;;;20.68;20.52;99914.30;108294;1252;73686;-65
2023/02/22 08:18:21;;;;;;;14.90;8.90;;;;;;;20.10;20.51;99919.48;108295;1253;60423;-67
2023/02/22 08:20:52;;;;;;;12.40;7.70;;;;;;;20.46;20.52;99926.80;108299;1252;60219;-67
2023/02/22 08:23:24;;;;;;;16.80;9.10;;;;;;;20.62;20.21;99926.59;108300;1253;74259;-66
2023/02/22 08:25:53;;;;;;;11.40;7.60;;;;;;;21.11;20.01;99930.17;108168;1253;71628;-67
2023/02/22 08:28:22;;;;;;;12.90;7.80;;;;;;;20.74;19.89;99933.95;108308;1253;71968;-67
2023/02/22 08:30:50;;;;;;;13.00;8.20;;;;;;;20.54;19.53;99934.88;108278;1253;60208;-66
2023/02/22 08:33:19;;;;;;;11.60;8.30;;;;;;;20.08;19.89;99940.70;108004;1253;61049;-67
2023/02/22 08:35:48;;;;;;;12.00;7.20;;;;;;;19.70;20.13;99945.83;108300;1253;72713;-67
2023/02/22 08:38:26;;;;;;;13.40;8.10;;;;;;;19.11;20.01;99945.83;108428;1253;70613;-67
2023/02/22 08:40:54;;;;;;;13.40;7.50;;;;;;;19.06;20.03;99945.34;108154;1253;72973;-67
2023/02/22 08:43:22;;;;;;;13.30;7.30;;;;;;;19.02;20.10;99949.38;108180;1253;60695;-65
2023/02/22 08:45:52;;;;;;;13.90;7.90;;;;;;;19.13;20.32;99951.36;108101;1259;61556;-68
2023/02/22 08:48:24;;;;;;;12.70;7.80;;;;;;;19.33;20.26;99949.17;108079;1258;74032;-67
2023/02/22 08:50:54;;;;;;;13.00;7.40;;;;;;;19.87;19.78;99950.19;108143;1253;69576;-66
2023/02/22 08:53:24;;;;;;;14.60;8.00;;;;;;;20.53;19.65;99944.72;108178;1253;73956;-66
2023/02/22 08:55:52;;;;;;;12.90;8.00;;;;;;;20.58;19.24;99954.70;108158;1253;60572;-66
2023/02/22 08:58:21;;;;;;;14.00;8.40;;;;;;;20.91;19.18;99953.96;108148;1253;61914;-67
2023/02/22 09:00:49;;;;;;;11.30;6.70;;;;;;;21.28;18.84;99959.79;108235;1253;74581;-66
2023/02/22 09:03:18;;;;;;;11.50;6.10;;;;;;;21.45;18.37;99958.00;108251;1253;71475;-67
2023/02/22 09:05:47;;;;;;;10.20;6.10;;;;;;;21.54;17.98;99954.54;108200;1253;72993;-67
2023/02/22 09:08:16;;;;;;;10.60;6.40;;;;;;;21.50;18.12;99959.55;108192;1256;60627;-68
2023/02/22 09:10:44;;;;;;;11.60;6.50;;;;;;;21.95;18.01;99956.73;108136;1253;60340;-67
2023/02/22 09:13:18;;;;;;;11.20;6.70;;;;;;;21.74;18.02;99958.17;108100;1253;74890;-68
2023/02/22 09:15:47;;;;;;;11.90;7.30;;;;;;;20.92;18.59;99961.54;108203;1253;70266;-66
2023/02/22 09:18:16;;;;;;;12.70;7.00;;;;;;;20.50;18.93;99965.48;108136;1253;72691;-68
2023/02/22 09:20:47;;;;;;;13.00;7.30;;;;;;;20.79;18.85;99964.73;108156;1252;60888;-66
2023/02/22 09:23:16;;;;;;;9.80;6.30;;;;;;;21.13;18.17;99966.26;108219;1253;61311;-66
2023/02/22 09:25:47;;;;;;;9.80;6.30;;;;;;;21.69;18.20;99956.39;108172;1253;74818;-67
2023/02/22 09:28:15;;;;;;;10.20;6.30;;;;;;;22.28;17.79;99959.06;108227;1252;71494;-67
2023/02/22 09:30:44;;;;;;;12.50;6.90;;;;;;;22.47;17.56;99957.85;108203;1252;73911;-67
2023/02/22 09:33:14;;;;;;;13.00;8.10;;;;;;;22.94;17.05;99956.39;108185;1253;60829;-68
2023/02/22 09:35:46;;;;;;;15.30;8.30;;;;;;;22.37;17.07;99957.40;108184;1252;60226;-68
2023/02/22 09:38:17;;;;;;;13.20;7.30;;;;;;;21.97;17.40;99958.19;108290;1253;74248;-67
2023/02/22 09:40:50;;;;;;;13.00;7.70;;;;;;;21.84;17.67;99956.43;108264;1252;71446;-68
2023/02/22 09:43:39;;;;;;;15.40;7.90;;;;;;;21.53;17.48;99957.52;108190;1252;72903;-67
2023/02/22 09:46:40;;;;;;;13.80;7.60;;;;;;;21.26;17.80;99961.74;108216;1253;60302;-66
2023/02/22 09:49:32;;;;;;;12.30;7.40;;;;;;;21.19;17.69;99959.64;108163;1253;60990;-67
2023/02/22 09:52:12;;;;;;;11.00;6.80;;;;;;;21.34;17.69;99956.59;108246;1252;74985;-67
2023/02/22 09:54:50;;;;;;;11.50;6.90;;;;;;;21.37;17.64;99964.21;108289;1252;69516;-67
2023/02/22 09:57:22;;;;;;;13.40;7.10;;;;;;;21.46;17.84;99967.03;108228;1253;73871;-68
2023/02/22 09:59:59;;;;;;;13.50;7.70;;;;;;;21.43;17.61;99966.77;108236;1254;60605;-68
2023/02/22 10:02:31;;;;;;;14.30;8.40;;;;;;;21.05;17.70;99969.01;108211;1253;61221;-67
2023/02/22 10:05:05;;;;;;;12.70;7.80;;;;;;;20.89;18.01;99970.57;108213;1253;74604;-66
2023/02/22 10:07:38;;;;;;;13.60;7.70;;;;;;;20.76;17.71;99970.16;108204;1253;71689;-67
2023/02/22 10:10:16;;;;;;;14.80;8.40;;;;;;;20.58;17.96;99971.61;108152;1253;73543;-67
2023/02/22 10:13:04;;;;;;;12.50;6.80;;;;;;;20.92;18.17;99973.13;108244;1254;60305;-66
2023/02/22 10:15:41;;;;;;;13.40;7.80;;;;;;;21.41;17.68;99972.66;108200;1253;60331;-67
2023/02/22 10:18:44;;;;;;;11.70;6.50;;;;;;;21.60;17.34;99969.38;108102;1258;74722;-67
2023/02/22 10:21:40;;;;;;;15.40;7.60;;;;;;;21.90;17.60;99971.86;108163;1253;70668;-66
2023/02/22 10:24:44;;;;;;;30.70;9.40;;;;;;;22.27;16.75;99966.83;108302;1254;72723;-68
2023/02/22 10:27:18;;;;;;;11.60;6.40;;;;;;;21.68;16.82;99966.02;108320;1253;60412;-68
2023/02/22 10:30:01;;;;;;;7.40;5.20;;;;;;;21.04;17.38;99968.38;108181;1253;60362;-67
2023/02/22 10:33:11;;;;;;;9.00;5.90;;;;;;;20.55;17.53;99969.41;108189;1253;75101;-68
2023/02/22 10:35:40;;;;;;;12.30;7.20;;;;;;;20.15;17.51;99975.55;107931;1259;68708;-68
2023/02/22 10:38:19;;;;;;;12.40;6.20;;;;;;;19.84;17.57;99971.77;108225;1253;73661;-68
2023/02/22 10:41:22;;;;;;;11.60;6.40;;;;;;;19.82;17.84;99972.48;108207;1253;60571;-67
2023/02/22 10:43:52;;;;;;;11.30;6.60;;;;;;;20.02;17.66;99975.23;108120;1257;61000;-66
2023/02/22 10:46:20;;;;;;;10.30;5.70;;;;;;;20.27;17.79;99971.95;108050;1253;75022;-68
2023/02/22 10:48:51;;;;;;;8.70;4.70;;;;;;;20.13;17.63;99976.45;108072;1253;70341;-68
2023/02/22 10:51:19;;;;;;;8.00;5.20;;;;;;;19.98;17.62;99969.48;108123;1255;73984;-66
2023/02/22 10:54:12;;;;;;;10.50;5.30;;;;;;;19.85;17.77;99971.20;108192;1252;61051;-68
2023/02/22 10:56:51;;;;;;;14.10;5.20;;;;;;;19.55;17.98;99971.01;108163;1253;60289;-67
2023/02/22 10:59:31;;;;;;;7.50;4.90;;;;;;;19.40;17.87;99972.27;108064;1253;74765;-68
2023/02/22 11:02:07;;;;;;;7.90;4.80;;;;;;;19.83;17.92;99966.00;108009;1253;70586;-68
2023/02/22 11:04:52;;;;;;;8.90;5.10;;;;;;;19.43;17.86;99975.96;108142;1253;73441;-67
2023/02/22 11:07:33;;;;;;;11.40;5.60;;;;;;;19.38;17.88;99972.66;108172;1253;59107;-66
2023/02/22 11:10:08;;;;;;;7.40;4.80;;;;;;;19.57;17.85;99973.68;108202;1253;61022;-67
2023/02/22 11:15:22;;;;;;;8.70;5.10;;;;;;;15.76;21.01;99982.35;104765;1291;601031;-68
2023/02/22 11:17:52;;;;;;;6.80;4.60;;;;;;;17.89;19.46;99975.64;107268;1265;59994;-68
2023/02/22 11:20:24;;;;;;;8.00;4.40;;;;;;;18.21;19.21;99979.41;107339;1266;61342;-66
2023/02/22 11:22:54;;;;;;;16.40;5.50;;;;;;;19.09;19.14;99978.18;107396;1266;73647;-68
2023/02/22 11:25:26;;;;;;;14.90;5.60;;;;;;;19.60;18.92;99980.73;107322;1266;71975;-66
2023/02/22 11:27:55;;;;;;;8.70;5.50;;;;;;;20.66;17.87;99970.48;107126;1264;179488;-67
2023/02/22 11:30:31;;;;;;;7.80;4.60;;;;;;;20.95;16.93;99978.43;107336;1264;59305;-67
2023/02/22 11:33:22;;;;;;;10.70;5.10;;;;;;;20.87;17.29;99977.50;107309;1263;60266;-67
2023/02/22 11:35:54;;;;;;;10.50;5.80;;;;;;;20.94;17.32;99976.03;107544;1260;73173;-67
2023/02/22 11:38:27;;;;;;;11.40;5.60;;;;;;;21.09;17.25;99977.75;107535;1260;71210;-66
2023/02/22 11:41:21;;;;;;;9.40;6.10;;;;;;;20.99;17.34;99983.61;107520;1261;71891;-67
2023/02/22 11:43:50;;;;;;;10.80;5.90;;;;;;;20.65;17.20;99985.34;107467;1262;60370;-69
2023/02/22 11:46:31;;;;;;;17.00;7.10;;;;;;;20.46;17.23;99994.54;107416;1262;61416;-67
2023/02/22 11:49:08;;;;;;;9.90;5.40;;;;;;;20.03;17.79;100000.11;107710;1259;72110;-66